sensor_id;sensor_type;location;lat;lon;timestamp;pressure;altitude;pressure_sealevel;temperature
15701;BMP180;7950;42.744;23.174;2022-10-26T00:01:12;94856.91;;;13.21
15701;BMP180;7950;42.744;23.174;2022-10-26T00:03:43;94849.25;;;13.20
15701;BMP180;7950;42.744;23.174;2022-10-26T00:06:14;94852.09;;;13.08
15701;BMP180;7950;42.744;23.174;2022-10-26T00:08:44;94847.84;;;13.02
15701;BMP180;7950;42.744;23.174;2022-10-26T00:11:40;94850.34;;;12.87
15701;BMP180;7950;42.744;23.174;2022-10-26T00:14:08;94854.56;;;12.83
15701;BMP180;7950;42.744;23.174;2022-10-26T00:16:37;94857.72;;;12.85
15701;BMP180;7950;42.744;23.174;2022-10-26T00:19:05;94853.38;;;12.69
15701;BMP180;7950;42.744;23.174;2022-10-26T00:21:34;94858.63;;;12.69
15701;BMP180;7950;42.744;23.174;2022-10-26T00:24:03;94850.22;;;12.67
15701;BMP180;7950;42.744;23.174;2022-10-26T00:26:58;94858.47;;;12.49
15701;BMP180;7950;42.744;23.174;2022-10-26T00:29:26;94864.44;;;12.40
15701;BMP180;7950;42.744;23.174;2022-10-26T00:31:55;94865.25;;;12.40
15701;BMP180;7950;42.744;23.174;2022-10-26T00:34:23;94865.81;;;12.47
15701;BMP180;7950;42.744;23.174;2022-10-26T00:36:54;94868.03;;;12.29
15701;BMP180;7950;42.744;23.174;2022-10-26T00:39:23;94865.09;;;12.25
15701;BMP180;7950;42.744;23.174;2022-10-26T00:41:51;94865.41;;;12.29
15701;BMP180;7950;42.744;23.174;2022-10-26T00:45:04;94869.34;;;12.26
15701;BMP180;7950;42.744;23.174;2022-10-26T00:47:40;94869.34;;;12.26
15701;BMP180;7950;42.744;23.174;2022-10-26T00:50:17;94864.84;;;12.27
15701;BMP180;7950;42.744;23.174;2022-10-26T00:52:48;94858.22;;;12.19
15701;BMP180;7950;42.744;23.174;2022-10-26T00:55:20;94861.03;;;12.13
15701;BMP180;7950;42.744;23.174;2022-10-26T00:57:53;94856.94;;;11.95
15701;BMP180;7950;42.744;23.174;2022-10-26T01:00:23;94852.97;;;11.93
15701;BMP180;7950;42.744;23.174;2022-10-26T01:02:54;94854.34;;;12.00
15701;BMP180;7950;42.744;23.174;2022-10-26T01:05:23;94857.16;;;11.94
15701;BMP180;7950;42.744;23.174;2022-10-26T01:07:53;94851.06;;;11.88
15701;BMP180;7950;42.744;23.174;2022-10-26T01:10:24;94850.00;;;11.89
15701;BMP180;7950;42.744;23.174;2022-10-26T01:12:55;94842.72;;;11.96
15701;BMP180;7950;42.744;23.174;2022-10-26T01:15:35;94838.53;;;11.95
15701;BMP180;7950;42.744;23.174;2022-10-26T01:18:14;94842.69;;;11.91
15701;BMP180;7950;42.744;23.174;2022-10-26T01:21:17;94847.75;;;11.76
15701;BMP180;7950;42.744;23.174;2022-10-26T01:24:12;94850.63;;;11.75
15701;BMP180;7950;42.744;23.174;2022-10-26T01:27:10;94840.91;;;11.75
15701;BMP180;7950;42.744;23.174;2022-10-26T01:33:32;94846.59;;;11.89
15701;BMP180;7950;42.744;23.174;2022-10-26T01:36:11;94844.22;;;11.87
15701;BMP180;7950;42.744;23.174;2022-10-26T01:38:53;94844.78;;;11.94
15701;BMP180;7950;42.744;23.174;2022-10-26T01:41:28;94843.50;;;11.97
15701;BMP180;7950;42.744;23.174;2022-10-26T01:44:13;94849.13;;;12.05
15701;BMP180;7950;42.744;23.174;2022-10-26T01:46:48;94849.13;;;12.05
15701;BMP180;7950;42.744;23.174;2022-10-26T01:49:23;94841.97;;;12.01
15701;BMP180;7950;42.744;23.174;2022-10-26T01:51:53;94853.25;;;11.96
15701;BMP180;7950;42.744;23.174;2022-10-26T01:54:21;94847.13;;;11.91
15701;BMP180;7950;42.744;23.174;2022-10-26T01:56:53;94849.97;;;11.84
15701;BMP180;7950;42.744;23.174;2022-10-26T01:59:45;94836.28;;;11.82
15701;BMP180;7950;42.744;23.174;2022-10-26T02:02:54;94842.06;;;11.84
15701;BMP180;7950;42.744;23.174;2022-10-26T02:05:49;94835.53;;;11.87
15701;BMP180;7950;42.744;23.174;2022-10-26T02:08:34;94841.53;;;11.82
15701;BMP180;7950;42.744;23.174;2022-10-26T02:11:14;94836.28;;;11.82
15701;BMP180;7950;42.744;23.174;2022-10-26T02:13:51;94834.22;;;11.89
15701;BMP180;7950;42.744;23.174;2022-10-26T02:16:27;94841.28;;;11.84
15701;BMP180;7950;42.744;23.174;2022-10-26T02:19:03;94846.47;;;11.79
15701;BMP180;7950;42.744;23.174;2022-10-26T02:21:43;94835.97;;;11.79
15701;BMP180;7950;42.744;23.174;2022-10-26T02:24:15;94836.94;;;11.73
15701;BMP180;7950;42.744;23.174;2022-10-26T02:26:47;94841.16;;;11.74
15701;BMP180;7950;42.744;23.174;2022-10-26T02:29:19;94837.72;;;11.68
15701;BMP180;7950;42.744;23.174;2022-10-26T02:31:50;94841.88;;;11.64
15701;BMP180;7950;42.744;23.174;2022-10-26T02:34:29;94841.31;;;11.62
15701;BMP180;7950;42.744;23.174;2022-10-26T02:37:03;94845.50;;;11.63
15701;BMP180;7950;42.744;23.174;2022-10-26T02:39:34;94841.44;;;11.56
15701;BMP180;7950;42.744;23.174;2022-10-26T02:42:06;94854.34;;;11.57
15701;BMP180;7950;42.744;23.174;2022-10-26T02:44:41;94864.84;;;11.57
15701;BMP180;7950;42.744;23.174;2022-10-26T02:47:12;94847.59;;;11.61
15701;BMP180;7950;42.744;23.174;2022-10-26T02:49:40;94852.38;;;11.64
15701;BMP180;7950;42.744;23.174;2022-10-26T02:52:17;94850.34;;;11.71
15701;BMP180;7950;42.744;23.174;2022-10-26T02:54:54;94849.03;;;11.74
15701;BMP180;7950;42.744;23.174;2022-10-26T02:57:33;94855.13;;;11.74
15701;BMP180;7950;42.744;23.174;2022-10-26T03:00:31;94867.09;;;11.65
15701;BMP180;7950;42.744;23.174;2022-10-26T03:03:00;94867.25;;;11.59
15701;BMP180;7950;42.744;23.174;2022-10-26T03:05:31;94875.38;;;11.57
15701;BMP180;7950;42.744;23.174;2022-10-26T03:08:04;94874.84;;;11.55
15701;BMP180;7950;42.744;23.174;2022-10-26T03:10:34;94879.03;;;11.56
15701;BMP180;7950;42.744;23.174;2022-10-26T03:13:04;94875.19;;;11.42
15701;BMP180;7950;42.744;23.174;2022-10-26T03:15:33;94880.97;;;11.44
15701;BMP180;7950;42.744;23.174;2022-10-26T03:18:02;94884.09;;;11.41
15701;BMP180;7950;42.744;23.174;2022-10-26T03:20:31;94878.84;;;11.41
15701;BMP180;7950;42.744;23.174;2022-10-26T03:22:59;94890.16;;;11.42
15701;BMP180;7950;42.744;23.174;2022-10-26T03:25:29;94881.63;;;11.35
15701;BMP180;7950;42.744;23.174;2022-10-26T03:27:59;94884.94;;;11.25
15701;BMP180;7950;42.744;23.174;2022-10-26T03:30:28;94891.16;;;11.19
15701;BMP180;7950;42.744;23.174;2022-10-26T03:32:57;94894.09;;;11.23
15701;BMP180;7950;42.744;23.174;2022-10-26T03:35:26;94892.25;;;11.23
15701;BMP180;7950;42.744;23.174;2022-10-26T03:37:54;94898.94;;;11.14
15701;BMP180;7950;42.744;23.174;2022-10-26T03:40:30;94905.72;;;11.10
15701;BMP180;7950;42.744;23.174;2022-10-26T03:42:59;94902.06;;;10.95
15701;BMP180;7950;42.744;23.174;2022-10-26T03:45:27;94901.84;;;10.96
15701;BMP180;7950;42.744;23.174;2022-10-26T03:47:56;94900.44;;;10.89
15701;BMP180;7950;42.744;23.174;2022-10-26T03:50:24;94909.47;;;11.14
15701;BMP180;7950;42.744;23.174;2022-10-26T03:52:53;94901.13;;;11.17
15701;BMP180;7950;42.744;23.174;2022-10-26T03:55:21;94905.69;;;11.43
15701;BMP180;7950;42.744;23.174;2022-10-26T03:57:51;94905.44;;;11.45
15701;BMP180;7950;42.744;23.174;2022-10-26T04:00:20;94904.81;;;11.59
15701;BMP180;7950;42.744;23.174;2022-10-26T04:02:55;94901.94;;;11.39
15701;BMP180;7950;42.744;23.174;2022-10-26T04:05:26;94907.56;;;11.48
15701;BMP180;7950;42.744;23.174;2022-10-26T04:07:57;94902.13;;;11.54
15701;BMP180;7950;42.744;23.174;2022-10-26T04:10:27;94902.94;;;11.55
15701;BMP180;7950;42.744;23.174;2022-10-26T04:12:57;94904.19;;;11.69
15701;BMP180;7950;42.744;23.174;2022-10-26T04:15:27;94906.22;;;11.62
15701;BMP180;7950;42.744;23.174;2022-10-26T04:17:57;94907.44;;;11.59
15701;BMP180;7950;42.744;23.174;2022-10-26T04:20:28;94907.72;;;11.41
15701;BMP180;7950;42.744;23.174;2022-10-26T04:22:58;94903.63;;;11.29
15701;BMP180;7950;42.744;23.174;2022-10-26T04:25:27;94906.56;;;11.32
15701;BMP180;7950;42.744;23.174;2022-10-26T04:28:07;94909.06;;;11.22
15701;BMP180;7950;42.744;23.174;2022-10-26T04:30:36;94911.94;;;11.04
15701;BMP180;7950;42.744;23.174;2022-10-26T04:33:06;94913.28;;;11.07
15701;BMP180;7950;42.744;23.174;2022-10-26T04:35:34;94915.28;;;11.16
15701;BMP180;7950;42.744;23.174;2022-10-26T04:38:05;94919.34;;;10.91
15701;BMP180;7950;42.744;23.174;2022-10-26T04:40:34;94915.03;;;11.01
15701;BMP180;7950;42.744;23.174;2022-10-26T04:43:04;94923.25;;;11.05
15701;BMP180;7950;42.744;23.174;2022-10-26T04:45:33;94924.19;;;10.99
15701;BMP180;7950;42.744;23.174;2022-10-26T04:48:04;94926.97;;;10.92
15701;BMP180;7950;42.744;23.174;2022-10-26T04:50:33;94927.56;;;10.94
15701;BMP180;7950;42.744;23.174;2022-10-26T04:53:02;94931.84;;;11.00
15701;BMP180;7950;42.744;23.174;2022-10-26T04:55:31;94931.50;;;11.13
15701;BMP180;7950;42.744;23.174;2022-10-26T04:57:59;94925.94;;;11.10
15701;BMP180;7950;42.744;23.174;2022-10-26T05:01:15;94932.78;;;11.11
15701;BMP180;7950;42.744;23.174;2022-10-26T05:03:48;94936.75;;;11.13
15701;BMP180;7950;42.744;23.174;2022-10-26T05:06:16;94940.44;;;11.12
15701;BMP180;7950;42.744;23.174;2022-10-26T05:08:45;94944.09;;;11.11
15701;BMP180;7950;42.744;23.174;2022-10-26T05:11:14;94939.38;;;11.13
15701;BMP180;7950;42.744;23.174;2022-10-26T05:13:43;94942.16;;;11.23
15701;BMP180;7950;42.744;23.174;2022-10-26T05:16:11;94929.19;;;11.33
15701;BMP180;7950;42.744;23.174;2022-10-26T05:18:41;94932.06;;;11.53
15701;BMP180;7950;42.744;23.174;2022-10-26T05:21:09;94932.72;;;11.60
15701;BMP180;7950;42.744;23.174;2022-10-26T05:23:38;94928.13;;;11.72
15701;BMP180;7950;42.744;23.174;2022-10-26T05:26:07;94937.31;;;11.91
15701;BMP180;7950;42.744;23.174;2022-10-26T05:28:35;94942.28;;;12.09
15701;BMP180;7950;42.744;23.174;2022-10-26T05:31:04;94948.25;;;12.26
15701;BMP180;7950;42.744;23.174;2022-10-26T05:33:32;94941.84;;;12.44
15701;BMP180;7950;42.744;23.174;2022-10-26T05:36:02;94947.94;;;12.49
15701;BMP180;7950;42.744;23.174;2022-10-26T05:38:31;94949.13;;;12.63
15701;BMP180;7950;42.744;23.174;2022-10-26T05:40:59;94955.38;;;12.84
15701;BMP180;7950;42.744;23.174;2022-10-26T05:43:28;94955.28;;;13.00
15701;BMP180;7950;42.744;23.174;2022-10-26T05:45:56;94953.31;;;13.17
15701;BMP180;7950;42.744;23.174;2022-10-26T05:48:25;94960.63;;;13.47
15701;BMP180;7950;42.744;23.174;2022-10-26T05:50:53;94948.66;;;13.76
15701;BMP180;7950;42.744;23.174;2022-10-26T05:53:27;94957.22;;;13.98
15701;BMP180;7950;42.744;23.174;2022-10-26T05:55:57;94962.66;;;14.28
15701;BMP180;7950;42.744;23.174;2022-10-26T05:58:26;94961.94;;;14.52
15701;BMP180;7950;42.744;23.174;2022-10-26T06:01:12;94967.53;;;14.81
15701;BMP180;7950;42.744;23.174;2022-10-26T06:03:56;94962.78;;;15.18
15701;BMP180;7950;42.744;23.174;2022-10-26T06:06:38;94972.84;;;15.51
15701;BMP180;7950;42.744;23.174;2022-10-26T06:09:11;94982.06;;;15.83
15701;BMP180;7950;42.744;23.174;2022-10-26T06:12:08;94978.75;;;16.16
15701;BMP180;7950;42.744;23.174;2022-10-26T06:14:42;94979.97;;;16.49
15701;BMP180;7950;42.744;23.174;2022-10-26T06:17:30;94982.19;;;16.81
15701;BMP180;7950;42.744;23.174;2022-10-26T06:20:32;94969.56;;;17.06
15701;BMP180;7950;42.744;23.174;2022-10-26T06:23:29;94981.59;;;17.27
15701;BMP180;7950;42.744;23.174;2022-10-26T06:26:12;94980.19;;;17.40
15701;BMP180;7950;42.744;23.174;2022-10-26T06:28:54;94972.69;;;17.47
15701;BMP180;7950;42.744;23.174;2022-10-26T06:31:26;94975.72;;;17.64
15701;BMP180;7950;42.744;23.174;2022-10-26T06:33:58;94975.97;;;17.67
15701;BMP180;7950;42.744;23.174;2022-10-26T06:36:30;94974.81;;;18.02
15701;BMP180;7950;42.744;23.174;2022-10-26T06:39:03;94978.72;;;18.33
15701;BMP180;7950;42.744;23.174;2022-10-26T06:41:35;94993.72;;;18.66
15701;BMP180;7950;42.744;23.174;2022-10-26T06:44:05;94975.78;;;18.95
15701;BMP180;7950;42.744;23.174;2022-10-26T06:46:41;94987.34;;;19.22
15701;BMP180;7950;42.744;23.174;2022-10-26T06:49:19;94978.78;;;19.44
15701;BMP180;7950;42.744;23.174;2022-10-26T06:51:56;94983.97;;;19.67
15701;BMP180;7950;42.744;23.174;2022-10-26T06:54:40;94987.06;;;19.88
15701;BMP180;7950;42.744;23.174;2022-10-26T06:57:32;94983.78;;;20.23
15701;BMP180;7950;42.744;23.174;2022-10-26T07:00:08;94990.38;;;20.52
15701;BMP180;7950;42.744;23.174;2022-10-26T07:02:41;94989.06;;;20.77
15701;BMP180;7950;42.744;23.174;2022-10-26T07:05:10;94985.81;;;20.93
15701;BMP180;7950;42.744;23.174;2022-10-26T07:07:42;94986.25;;;21.09
15701;BMP180;7950;42.744;23.174;2022-10-26T07:10:13;94983.97;;;21.16
15701;BMP180;7950;42.744;23.174;2022-10-26T07:12:43;94974.84;;;21.30
15701;BMP180;7950;42.744;23.174;2022-10-26T07:15:12;94975.00;;;21.56
15701;BMP180;7950;42.744;23.174;2022-10-26T07:17:44;94987.69;;;21.72
15701;BMP180;7950;42.744;23.174;2022-10-26T07:20:14;94985.81;;;21.95
15701;BMP180;7950;42.744;23.174;2022-10-26T07:22:42;94988.41;;;22.17
15701;BMP180;7950;42.744;23.174;2022-10-26T07:25:36;94981.97;;;22.48
15701;BMP180;7950;42.744;23.174;2022-10-26T07:28:09;94977.59;;;22.69
15701;BMP180;7950;42.744;23.174;2022-10-26T07:30:39;94978.28;;;22.83
15701;BMP180;7950;42.744;23.174;2022-10-26T07:33:16;94984.25;;;22.89
15701;BMP180;7950;42.744;23.174;2022-10-26T07:35:45;94980.97;;;23.00
15701;BMP180;7950;42.744;23.174;2022-10-26T07:38:14;94980.19;;;23.08
15701;BMP180;7950;42.744;23.174;2022-10-26T07:40:42;94973.16;;;23.21
15701;BMP180;7950;42.744;23.174;2022-10-26T07:43:12;94978.97;;;23.40
15701;BMP180;7950;42.744;23.174;2022-10-26T07:45:42;94980.38;;;23.46
15701;BMP180;7950;42.744;23.174;2022-10-26T07:48:10;94970.16;;;23.31
15701;BMP180;7950;42.744;23.174;2022-10-26T07:50:38;94972.81;;;23.40
15701;BMP180;7950;42.744;23.174;2022-10-26T07:53:07;94971.72;;;23.49
15701;BMP180;7950;42.744;23.174;2022-10-26T07:55:35;94972.94;;;23.60
15701;BMP180;7950;42.744;23.174;2022-10-26T07:58:04;94963.50;;;23.71
15701;BMP180;7950;42.744;23.174;2022-10-26T08:00:34;94967.88;;;23.84
15701;BMP180;7950;42.744;23.174;2022-10-26T08:03:02;94967.88;;;24.01
15701;BMP180;7950;42.744;23.174;2022-10-26T08:05:31;94957.16;;;24.01
15701;BMP180;7950;42.744;23.174;2022-10-26T08:07:59;94957.78;;;23.98
15701;BMP180;7950;42.744;23.174;2022-10-26T08:10:28;94954.47;;;24.01
15701;BMP180;7950;42.744;23.174;2022-10-26T08:12:56;94958.22;;;24.09
15701;BMP180;7950;42.744;23.174;2022-10-26T08:15:25;94958.28;;;24.29
15701;BMP180;7950;42.744;23.174;2022-10-26T08:17:54;94955.94;;;24.28
15701;BMP180;7950;42.744;23.174;2022-10-26T08:20:23;94947.84;;;24.36
15701;BMP180;7950;42.744;23.174;2022-10-26T08:22:51;94954.09;;;24.49
15701;BMP180;7950;42.744;23.174;2022-10-26T08:25:23;94952.78;;;24.63
15701;BMP180;7950;42.744;23.174;2022-10-26T08:27:52;94949.66;;;24.82
15701;BMP180;7950;42.744;23.174;2022-10-26T08:30:21;94963.03;;;24.90
15701;BMP180;7950;42.744;23.174;2022-10-26T08:32:59;94956.84;;;24.98
15701;BMP180;7950;42.744;23.174;2022-10-26T08:35:28;94948.78;;;25.19
15701;BMP180;7950;42.744;23.174;2022-10-26T08:37:56;94953.13;;;25.32
15701;BMP180;7950;42.744;23.174;2022-10-26T08:40:29;94946.44;;;25.38
15701;BMP180;7950;42.744;23.174;2022-10-26T08:43:04;94944.97;;;25.40
15701;BMP180;7950;42.744;23.174;2022-10-26T08:45:38;94947.34;;;25.42
15701;BMP180;7950;42.744;23.174;2022-10-26T08:48:16;94951.00;;;25.37
15701;BMP180;7950;42.744;23.174;2022-10-26T08:50:50;94952.44;;;25.55
15701;BMP180;7950;42.744;23.174;2022-10-26T08:53:27;94958.63;;;25.68
15701;BMP180;7950;42.744;23.174;2022-10-26T08:56:03;94948.78;;;25.39
15701;BMP180;7950;42.744;23.174;2022-10-26T08:58:44;94954.47;;;25.38
15701;BMP180;7950;42.744;23.174;2022-10-26T09:01:14;94962.53;;;25.38
15701;BMP180;7950;42.744;23.174;2022-10-26T09:03:44;94963.25;;;25.47
15701;BMP180;7950;42.744;23.174;2022-10-26T09:06:29;94958.53;;;25.64
15701;BMP180;7950;42.744;23.174;2022-10-26T09:09:06;94952.97;;;25.49
15701;BMP180;7950;42.744;23.174;2022-10-26T09:11:53;94958.00;;;25.50
15701;BMP180;7950;42.744;23.174;2022-10-26T09:14:37;94950.28;;;25.28
15701;BMP180;7950;42.744;23.174;2022-10-26T09:17:20;94948.38;;;25.08
15701;BMP180;7950;42.744;23.174;2022-10-26T09:20:36;94955.00;;;25.31
15701;BMP180;7950;42.744;23.174;2022-10-26T09:23:27;94951.47;;;25.39
15701;BMP180;7950;42.744;23.174;2022-10-26T09:25:59;94952.22;;;25.60
15701;BMP180;7950;42.744;23.174;2022-10-26T09:28:34;94943.22;;;25.77
15701;BMP180;7950;42.744;23.174;2022-10-26T09:31:04;94944.19;;;25.60
15701;BMP180;7950;42.744;23.174;2022-10-26T09:33:39;94939.59;;;25.40
15701;BMP180;7950;42.744;23.174;2022-10-26T09:36:12;94941.88;;;25.50
15701;BMP180;7950;42.744;23.174;2022-10-26T09:38:51;94942.59;;;25.59
15701;BMP180;7950;42.744;23.174;2022-10-26T09:41:28;94925.59;;;25.67
15701;BMP180;7950;42.744;23.174;2022-10-26T09:44:05;94930.53;;;25.65
15701;BMP180;7950;42.744;23.174;2022-10-26T09:46:57;94932.78;;;25.43
15701;BMP180;7950;42.744;23.174;2022-10-26T09:49:37;94938.28;;;25.26
15701;BMP180;7950;42.744;23.174;2022-10-26T09:52:09;94937.44;;;25.13
15701;BMP180;7950;42.744;23.174;2022-10-26T09:54:43;94930.94;;;25.14
15701;BMP180;7950;42.744;23.174;2022-10-26T09:57:15;94929.19;;;24.98
15701;BMP180;7950;42.744;23.174;2022-10-26T09:59:46;94927.81;;;24.92
15701;BMP180;7950;42.744;23.174;2022-10-26T10:02:32;94924.22;;;24.88
15701;BMP180;7950;42.744;23.174;2022-10-26T10:05:02;94925.50;;;24.61
15701;BMP180;7950;42.744;23.174;2022-10-26T10:10:10;94918.72;;;24.55
15701;BMP180;7950;42.744;23.174;2022-10-26T10:12:42;94909.63;;;24.48
15701;BMP180;7950;42.744;23.174;2022-10-26T10:15:19;94917.84;;;24.43
15701;BMP180;7950;42.744;23.174;2022-10-26T10:17:50;94913.03;;;24.28
15701;BMP180;7950;42.744;23.174;2022-10-26T10:20:23;94913.63;;;24.33
15701;BMP180;7950;42.744;23.174;2022-10-26T10:22:56;94918.34;;;24.36
15701;BMP180;7950;42.744;23.174;2022-10-26T10:25:35;94905.41;;;24.38
15701;BMP180;7950;42.744;23.174;2022-10-26T10:28:20;94905.63;;;24.25
15701;BMP180;7950;42.744;23.174;2022-10-26T10:30:53;94901.69;;;24.22
15701;BMP180;7950;42.744;23.174;2022-10-26T10:33:35;94902.31;;;23.73
15701;BMP180;7950;42.744;23.174;2022-10-26T10:36:09;94897.78;;;23.65
15701;BMP180;7950;42.744;23.174;2022-10-26T10:38:43;94904.09;;;23.61
15701;BMP180;7950;42.744;23.174;2022-10-26T10:41:24;94900.03;;;23.46
15701;BMP180;7950;42.744;23.174;2022-10-26T10:44:02;94885.09;;;23.45
15701;BMP180;7950;42.744;23.174;2022-10-26T10:46:34;94889.16;;;23.51
15701;BMP180;7950;42.744;23.174;2022-10-26T10:49:06;94885.97;;;23.66
15701;BMP180;7950;42.744;23.174;2022-10-26T10:51:44;94886.66;;;23.55
15701;BMP180;7950;42.744;23.174;2022-10-26T10:54:24;94885.97;;;23.66
15701;BMP180;7950;42.744;23.174;2022-10-26T10:56:56;94885.47;;;23.73
15701;BMP180;7950;42.744;23.174;2022-10-26T10:59:56;94879.44;;;23.84
15701;BMP180;7950;42.744;23.174;2022-10-26T11:02:56;94876.31;;;23.91
15701;BMP180;7950;42.744;23.174;2022-10-26T11:06:03;94872.97;;;23.85
15701;BMP180;7950;42.744;23.174;2022-10-26T11:08:46;94874.59;;;23.78
15701;BMP180;7950;42.744;23.174;2022-10-26T11:11:22;94877.31;;;23.61
15701;BMP180;7950;42.744;23.174;2022-10-26T11:13:57;94868.66;;;23.64
15701;BMP180;7950;42.744;23.174;2022-10-26T11:16:31;94876.88;;;23.50
15701;BMP180;7950;42.744;23.174;2022-10-26T11:19:07;94870.09;;;23.61
15701;BMP180;7950;42.744;23.174;2022-10-26T11:21:47;94863.31;;;23.55
15701;BMP180;7950;42.744;23.174;2022-10-26T11:24:23;94862.91;;;23.36
15701;BMP180;7950;42.744;23.174;2022-10-26T11:27:01;94866.66;;;23.44
15701;BMP180;7950;42.744;23.174;2022-10-26T11:29:39;94863.34;;;23.38
15701;BMP180;7950;42.744;23.174;2022-10-26T11:32:23;94862.22;;;23.48
15701;BMP180;7950;42.744;23.174;2022-10-26T11:35:00;94856.97;;;23.68
15701;BMP180;7950;42.744;23.174;2022-10-26T11:37:37;94865.13;;;23.72
15701;BMP180;7950;42.744;23.174;2022-10-26T11:40:25;94861.56;;;23.68
15701;BMP180;7950;42.744;23.174;2022-10-26T11:43:07;94861.06;;;23.66
15701;BMP180;7950;42.744;23.174;2022-10-26T11:45:43;94862.38;;;23.51
15701;BMP180;7950;42.744;23.174;2022-10-26T11:48:43;94860.03;;;23.41
15701;BMP180;7950;42.744;23.174;2022-10-26T11:51:35;94848.22;;;23.51
15701;BMP180;7950;42.744;23.174;2022-10-26T11:54:34;94852.25;;;23.65
15701;BMP180;7950;42.744;23.174;2022-10-26T11:57:04;94842.94;;;23.71
15701;BMP180;7950;42.744;23.174;2022-10-26T11:59:41;94848.03;;;23.56
15701;BMP180;7950;42.744;23.174;2022-10-26T12:02:14;94843.81;;;23.46
15701;BMP180;7950;42.744;23.174;2022-10-26T12:04:49;94846.31;;;23.51
15701;BMP180;7950;42.744;23.174;2022-10-26T12:07:29;94846.03;;;23.36
15701;BMP180;7950;42.744;23.174;2022-10-26T12:10:01;94849.78;;;23.43
15701;BMP180;7950;42.744;23.174;2022-10-26T12:12:37;94842.81;;;23.59
15701;BMP180;7950;42.744;23.174;2022-10-26T12:15:21;94843.31;;;23.53
15701;BMP180;7950;42.744;23.174;2022-10-26T12:18:17;94846.13;;;23.65
15701;BMP180;7950;42.744;23.174;2022-10-26T12:21:11;94842.63;;;23.73
15701;BMP180;7950;42.744;23.174;2022-10-26T12:23:55;94848.13;;;23.76
15701;BMP180;7950;42.744;23.174;2022-10-26T12:26:51;94834.91;;;23.71
15701;BMP180;7950;42.744;23.174;2022-10-26T12:29:46;94834.91;;;23.71
15701;BMP180;7950;42.744;23.174;2022-10-26T12:32:52;94844.38;;;23.60
15701;BMP180;7950;42.744;23.174;2022-10-26T12:35:42;94842.19;;;23.62
15701;BMP180;7950;42.744;23.174;2022-10-26T12:38:54;94832.47;;;23.49
15701;BMP180;7950;42.744;23.174;2022-10-26T12:41:25;94836.91;;;23.37
15701;BMP180;7950;42.744;23.174;2022-10-26T12:44:02;94833.31;;;23.24
15701;BMP180;7950;42.744;23.174;2022-10-26T12:46:50;94831.13;;;23.09
15701;BMP180;7950;42.744;23.174;2022-10-26T12:49:59;94830.63;;;23.07
15701;BMP180;7950;42.744;23.174;2022-10-26T12:52:45;94836.16;;;22.93
15701;BMP180;7950;42.744;23.174;2022-10-26T12:56:02;94827.97;;;22.90
15701;BMP180;7950;42.744;23.174;2022-10-26T12:59:02;94843.09;;;22.86
15701;BMP180;7950;42.744;23.174;2022-10-26T13:02:23;94841.66;;;22.97
15701;BMP180;7950;42.744;23.174;2022-10-26T13:05:28;94842.94;;;23.08
15701;BMP180;7950;42.744;23.174;2022-10-26T13:08:06;94843.22;;;23.15
15701;BMP180;7950;42.744;23.174;2022-10-26T13:10:37;94841.50;;;23.10
15701;BMP180;7950;42.744;23.174;2022-10-26T13:13:07;94844.66;;;23.04
15701;BMP180;7950;42.744;23.174;2022-10-26T13:15:40;94843.88;;;23.03
15701;BMP180;7950;42.744;23.174;2022-10-26T13:18:52;94844.78;;;23.16
15701;BMP180;7950;42.744;23.174;2022-10-26T13:21:23;94845.88;;;23.15
15701;BMP180;7950;42.744;23.174;2022-10-26T13:23:58;94851.41;;;23.27
15701;BMP180;7950;42.744;23.174;2022-10-26T13:33:34;94851.41;;;23.27
15701;BMP180;7950;42.744;23.174;2022-10-26T13:36:16;94847.94;;;23.35
15701;BMP180;7950;42.744;23.174;2022-10-26T13:38:47;94851.91;;;23.21
15701;BMP180;7950;42.744;23.174;2022-10-26T13:41:25;94853.78;;;23.03
15701;BMP180;7950;42.744;23.174;2022-10-26T13:43:57;94856.78;;;22.84
15701;BMP180;7950;42.744;23.174;2022-10-26T13:46:28;94863.06;;;22.80
15701;BMP180;7950;42.744;23.174;2022-10-26T13:49:08;94855.81;;;22.72
15701;BMP180;7950;42.744;23.174;2022-10-26T13:51:45;94861.81;;;22.52
15701;BMP180;7950;42.744;23.174;2022-10-26T13:54:24;94858.63;;;22.41
15701;BMP180;7950;42.744;23.174;2022-10-26T13:57:15;94864.72;;;22.33
15701;BMP180;7950;42.744;23.174;2022-10-26T13:59:45;94860.16;;;22.17
15701;BMP180;7950;42.744;23.174;2022-10-26T14:02:21;94868.91;;;22.00
15701;BMP180;7950;42.744;23.174;2022-10-26T14:05:00;94872.13;;;21.80
15701;BMP180;7950;42.744;23.174;2022-10-26T14:07:35;94873.91;;;21.63
15701;BMP180;7950;42.744;23.174;2022-10-26T14:10:06;94866.16;;;21.53
15701;BMP180;7950;42.744;23.174;2022-10-26T14:13:23;94865.44;;;21.39
15701;BMP180;7950;42.744;23.174;2022-10-26T14:15:55;94861.47;;;21.28
15701;BMP180;7950;42.744;23.174;2022-10-26T14:18:28;94870.38;;;21.23
15701;BMP180;7950;42.744;23.174;2022-10-26T14:21:00;94875.69;;;21.15
15701;BMP180;7950;42.744;23.174;2022-10-26T14:23:56;94869.53;;;21.14
15701;BMP180;7950;42.744;23.174;2022-10-26T14:26:28;94875.44;;;21.03
15701;BMP180;7950;42.744;23.174;2022-10-26T14:28:59;94874.28;;;20.95
15701;BMP180;7950;42.744;23.174;2022-10-26T14:31:30;94877.63;;;20.87
15701;BMP180;7950;42.744;23.174;2022-10-26T14:34:03;94881.44;;;20.73
15701;BMP180;7950;42.744;23.174;2022-10-26T14:36:37;94881.69;;;20.63
15701;BMP180;7950;42.744;23.174;2022-10-26T14:39:18;94880.53;;;20.55
15701;BMP180;7950;42.744;23.174;2022-10-26T14:41:51;94875.59;;;20.49
15701;BMP180;7950;42.744;23.174;2022-10-26T14:44:23;94874.72;;;20.40
15701;BMP180;7950;42.744;23.174;2022-10-26T14:46:52;94885.00;;;20.33
15701;BMP180;7950;42.744;23.174;2022-10-26T14:49:24;94877.53;;;20.21
15701;BMP180;7950;42.744;23.174;2022-10-26T14:51:57;94877.44;;;20.13
15701;BMP180;7950;42.744;23.174;2022-10-26T14:54:28;94880.25;;;20.03
15701;BMP180;7950;42.744;23.174;2022-10-26T14:56:59;94880.34;;;19.98
15701;BMP180;7950;42.744;23.174;2022-10-26T14:59:34;94885.91;;;19.88
15701;BMP180;7950;42.744;23.174;2022-10-26T15:02:14;94880.47;;;19.79
15701;BMP180;7950;42.744;23.174;2022-10-26T15:05:20;94879.47;;;19.62
15701;BMP180;7950;42.744;23.174;2022-10-26T15:07:49;94874.06;;;19.53
15701;BMP180;7950;42.744;23.174;2022-10-26T15:10:46;94871.97;;;19.37
15701;BMP180;7950;42.744;23.174;2022-10-26T15:13:28;94881.81;;;19.18
15701;BMP180;7950;42.744;23.174;2022-10-26T15:16:08;94875.00;;;19.12